Time;durP1;ratioP1;P1;durP2;ratioP2;P2;SDS_P1;SDS_P2;PMS_P1;PMS_P2;Temp;Humidity;BMP_temperature;BMP_pressure;BME280_temperature;BME280_humidity;BME280_pressure;Samples;Min_cycle;Max_cycle;Signal;HPM_P1;HPM_P2
2022/07/07 00:02:20;;;;;;;2.57;1.33;;;13.90;22.90;;;;;;8310448;28;20221;-66
2022/07/07 00:06:21;;;;;;;1.50;1.20;;;13.90;13.60;;;;;;8308559;28;20210;-66
2022/07/07 00:10:22;;;;;;;3.20;1.30;;;13.90;62.70;;;;;;8309557;28;20329;-66
2022/07/07 00:14:22;;;;;;;4.40;1.77;;;13.90;80.50;;;;;;8306602;28;20186;-66
2022/07/07 00:18:23;;;;;;;3.37;1.43;;;13.80;99.90;;;;;;8306031;28;20277;-66
2022/07/07 00:22:25;;;;;;;2.47;1.43;;;13.70;99.90;;;;;;8314589;28;20197;-66
2022/07/07 00:26:26;;;;;;;3.37;1.97;;;13.60;99.90;;;;;;8305665;28;20226;-66
2022/07/07 00:30:27;;;;;;;2.53;1.80;;;13.40;99.90;;;;;;8310809;28;20210;-69
2022/07/07 00:34:27;;;;;;;2.07;1.60;;;13.30;99.90;;;;;;8311924;28;20205;-67
2022/07/07 00:38:29;;;;;;;3.40;1.70;;;13.20;99.90;;;;;;8316702;28;20365;-67
2022/07/07 00:42:30;;;;;;;3.80;1.73;;;13.00;99.90;;;;;;8313678;28;20182;-67
2022/07/07 00:46:51;;;;;;;2.23;1.37;;;13.00;99.90;;;;;;8312329;28;20198;-67
2022/07/07 00:50:52;;;;;;;2.67;1.43;;;12.90;99.90;;;;;;8344501;28;20340;-67
2022/07/07 00:54:59;;;;;;;2.03;1.37;;;12.80;99.90;;;;;;8314048;28;20396;-66
2022/07/07 00:59:02;;;;;;;1.70;1.27;;;12.60;1.00;;;;;;8313793;28;20193;-67
2022/07/07 01:03:04;;;;;;;2.13;1.57;;;12.60;1.00;;;;;;8317729;28;20189;-67
2022/07/07 01:07:04;;;;;;;2.03;1.03;;;12.50;1.00;;;;;;8313960;28;20214;-67
2022/07/07 01:11:05;;;;;;;1.47;1.17;;;12.40;1.00;;;;;;8340986;28;20400;-65
2022/07/07 01:15:09;;;;;;;2.43;1.27;;;12.30;1.00;;;;;;8318688;28;20190;-67
2022/07/07 01:19:10;;;;;;;1.80;1.60;;;12.20;21.80;;;;;;8327042;28;20247;-71
2022/07/07 01:23:11;;;;;;;2.73;1.30;;;12.20;99.90;;;;;;8322036;28;20204;-67
2022/07/07 01:27:17;;;;;;;3.43;1.20;;;12.10;99.90;;;;;;8311637;28;20402;-67
2022/07/07 01:31:18;;;;;;;2.07;1.23;;;12.10;99.90;;;;;;8314198;28;20189;-66
2022/07/07 01:35:19;;;;;;;2.23;1.40;;;12.00;99.90;;;;;;8314410;28;20189;-68
2022/07/07 01:39:20;;;;;;;2.33;1.20;;;12.00;99.90;;;;;;8314440;28;20224;-66
2022/07/07 01:43:20;;;;;;;1.77;1.33;;;12.00;99.90;;;;;;8313388;28;20232;-68
2022/07/07 01:47:23;;;;;;;2.13;1.30;;;11.90;99.90;;;;;;8306813;28;20220;-70
2022/07/07 01:51:23;;;;;;;1.10;0.90;;;11.90;99.90;;;;;;8324421;28;20212;-66
2022/07/07 01:55:24;;;;;;;2.33;1.20;;;11.80;99.90;;;;;;8307684;28;20193;-66
2022/07/07 01:59:25;;;;;;;2.17;1.30;;;11.80;1.00;;;;;;8306398;28;20231;-67
2022/07/07 02:03:26;;;;;;;1.80;1.23;;;11.80;1.00;;;;;;8312903;28;20190;-66
2022/07/07 02:07:27;;;;;;;2.10;1.37;;;11.90;1.00;;;;;;8314116;28;20261;-66
2022/07/07 02:11:28;;;;;;;4.13;1.23;;;11.90;1.00;;;;;;8313390;28;20180;-66
2022/07/07 02:15:30;;;;;;;1.97;1.27;;;12.00;1.00;;;;;;8308156;28;20184;-66
2022/07/07 02:19:30;;;;;;;2.30;1.10;;;12.00;99.90;;;;;;8314884;28;20191;-66
2022/07/07 02:23:32;;;;;;;3.33;1.50;;;12.00;99.90;;;;;;8310995;28;20185;-66
2022/07/07 02:27:33;;;;;;;1.83;1.40;;;12.10;99.90;;;;;;8312249;28;20292;-66
2022/07/07 02:31:34;;;;;;;1.70;1.20;;;12.10;99.90;;;;;;8313195;28;20244;-66
2022/07/07 02:35:35;;;;;;;3.63;1.30;;;12.10;99.90;;;;;;8311492;28;20189;-67
2022/07/07 02:39:36;;;;;;;1.73;1.23;;;12.20;99.90;;;;;;8313194;28;20208;-67
2022/07/07 02:43:37;;;;;;;3.17;1.37;;;12.20;99.90;;;;;;8320540;28;20189;-67
2022/07/07 02:47:38;;;;;;;1.50;1.23;;;12.20;99.90;;;;;;8306942;28;20205;-67
2022/07/07 02:51:39;;;;;;;2.07;1.20;;;12.20;1.00;;;;;;8312888;28;20219;-67
2022/07/07 02:55:40;;;;;;;2.47;1.27;;;12.20;1.00;;;;;;8311392;28;20192;-67
2022/07/07 02:59:41;;;;;;;3.33;1.50;;;12.30;1.00;;;;;;8309655;28;20276;-66
2022/07/07 03:03:42;;;;;;;2.20;1.23;;;12.30;1.00;;;;;;8306256;28;20197;-66
2022/07/07 03:07:43;;;;;;;4.57;1.47;;;12.30;1.00;;;;;;8310299;28;20227;-66
2022/07/07 03:11:43;;;;;;;2.30;1.60;;;12.40;1.00;;;;;;8310913;28;20184;-68
2022/07/07 03:15:44;;;;;;;3.07;1.40;;;12.40;1.00;;;;;;8308247;28;20177;-66
2022/07/07 03:19:45;;;;;;;1.93;1.23;;;12.40;1.00;;;;;;8296614;28;20194;-66
2022/07/07 03:23:46;;;;;;;3.37;1.23;;;12.40;1.00;;;;;;8309903;28;20201;-65
2022/07/07 03:27:46;;;;;;;3.73;1.40;;;12.50;1.00;;;;;;8308605;28;20218;-66
2022/07/07 03:31:47;;;;;;;1.67;1.37;;;12.70;99.90;;;;;;8307481;28;20186;-68
2022/07/07 03:35:48;;;;;;;3.13;1.50;;;12.80;99.90;;;;;;8312995;28;20193;-69
2022/07/07 03:39:49;;;;;;;2.83;1.07;;;13.00;99.90;;;;;;8313107;28;20193;-66
2022/07/07 03:43:49;;;;;;;2.53;1.30;;;13.20;92.70;;;;;;8307712;28;20247;-71
2022/07/07 03:47:50;;;;;;;1.17;0.87;;;13.30;1.00;;;;;;8307324;28;20215;-66
2022/07/07 03:51:54;;;;;;;2.57;1.07;;;13.50;1.00;;;;;;8305181;28;20233;-72
2022/07/07 03:55:55;;;;;;;1.67;0.93;;;13.70;99.90;;;;;;8312742;28;20195;-65
2022/07/07 03:59:56;;;;;;;1.37;0.93;;;13.80;99.90;;;;;;8309570;28;20186;-71
2022/07/07 04:03:57;;;;;;;1.97;0.97;;;14.00;99.90;;;;;;8309746;28;20190;-68
2022/07/07 04:07:57;;;;;;;4.83;1.40;;;14.20;99.90;;;;;;8304581;28;20223;-67
2022/07/07 04:11:58;;;;;;;1.97;1.20;;;14.20;99.90;;;;;;8308652;28;20190;-72
2022/07/07 04:15:59;;;;;;;2.43;1.10;;;14.20;99.90;;;;;;8298132;28;20196;-71
2022/07/07 04:20:00;;;;;;;2.33;1.07;;;14.30;99.90;;;;;;8307890;28;20212;-66
2022/07/07 04:24:00;;;;;;;2.87;0.90;;;14.40;99.90;;;;;;8322102;28;20191;-71
2022/07/07 04:28:01;;;;;;;4.03;1.40;;;14.60;99.90;;;;;;8303843;28;20214;-71
2022/07/07 04:32:03;;;;;;;4.50;1.40;;;14.80;93.30;;;;;;8306142;28;20187;-67
2022/07/07 04:36:04;;;;;;;1.70;1.10;;;15.00;23.10;;;;;;8303000;28;20182;-69
2022/07/07 04:40:06;;;;;;;2.50;1.20;;;15.40;1.00;;;;;;8307201;28;20193;-71
2022/07/07 04:44:07;;;;;;;1.10;1.00;;;16.00;1.00;;;;;;8304199;28;20183;-66
2022/07/07 04:48:08;;;;;;;1.33;0.80;;;16.10;1.00;;;;;;8307331;28;20229;-68
2022/07/07 04:52:09;;;;;;;1.20;0.80;;;16.00;1.00;;;;;;8306854;28;20210;-67
2022/07/07 04:56:10;;;;;;;1.80;0.90;;;16.00;1.00;;;;;;8303651;28;20186;-66
2022/07/07 05:00:11;;;;;;;2.23;1.10;;;15.90;1.00;;;;;;8300412;28;20193;-69
2022/07/07 05:04:12;;;;;;;1.30;0.80;;;15.90;1.00;;;;;;8300852;28;20195;-68
2022/07/07 05:08:13;;;;;;;2.93;1.07;;;15.90;1.00;;;;;;8305974;28;20210;-68
2022/07/07 05:12:14;;;;;;;3.37;1.37;;;16.00;1.00;;;;;;8304524;28;20191;-68
2022/07/07 05:16:15;;;;;;;1.63;0.90;;;16.30;99.90;;;;;;8319593;28;20186;-67
2022/07/07 05:20:16;;;;;;;1.40;0.90;;;16.60;99.90;;;;;;8305630;28;20187;-68
2022/07/07 05:24:17;;;;;;;2.43;0.80;;;17.10;99.90;;;;;;8311311;28;20194;-66
2022/07/07 05:28:18;;;;;;;7.17;1.20;;;17.80;99.90;;;;;;8302964;28;20294;-72
2022/07/07 05:32:18;;;;;;;2.93;0.73;;;18.40;99.90;;;;;;8304565;28;20187;-68
2022/07/07 05:36:19;;;;;;;2.90;0.80;;;19.10;99.90;;;;;;8307208;28;20242;-69
2022/07/07 05:40:20;;;;;;;1.63;0.80;;;19.60;99.90;;;;;;8305306;28;20214;-62
2022/07/07 05:44:21;;;;;;;2.40;0.67;;;19.90;57.50;;;;;;8307098;28;20218;-63
2022/07/07 05:48:21;;;;;;;1.53;0.60;;;20.20;26.60;;;;;;8307374;28;20218;-64
2022/07/07 05:52:22;;;;;;;2.77;0.50;;;20.30;17.00;;;;;;8308444;28;20241;-64
2022/07/07 05:56:23;;;;;;;2.70;0.80;;;20.50;6.00;;;;;;8338426;28;20189;-68
2022/07/07 06:00:25;;;;;;;4.43;0.73;;;20.60;1.00;;;;;;8318633;28;20186;-63
2022/07/07 06:04:29;;;;;;;3.70;0.70;;;20.70;1.00;;;;;;8304494;28;20206;-67
2022/07/07 06:08:30;;;;;;;4.33;0.57;;;20.70;1.00;;;;;;8311482;28;20211;-62
2022/07/07 06:12:30;;;;;;;3.57;0.70;;;20.70;1.00;;;;;;8309787;28;20183;-62
2022/07/07 06:16:43;;;;;;;2.10;0.60;;;20.70;1.00;;;;;;8308699;28;20217;-62
2022/07/07 06:20:44;;;;;;;1.30;0.70;;;20.90;1.00;;;;;;8307861;28;20191;-62
2022/07/07 06:24:45;;;;;;;2.00;0.40;;;20.90;1.00;;;;;;8312552;28;20194;-65
2022/07/07 06:28:46;;;;;;;3.47;0.77;;;20.80;1.00;;;;;;8305736;28;20306;-64
2022/07/07 06:32:46;;;;;;;1.70;0.50;;;20.80;1.00;;;;;;8297912;28;20201;-61
2022/07/07 06:36:47;;;;;;;2.50;0.60;;;21.00;1.00;;;;;;8303250;28;20198;-60
2022/07/07 06:40:48;;;;;;;2.77;0.73;;;21.40;1.00;;;;;;8306520;28;20205;-62
2022/07/07 06:44:49;;;;;;;2.33;0.50;;;21.70;1.00;;;;;;8305392;28;20201;-65
2022/07/07 06:48:50;;;;;;;4.50;0.67;;;21.60;1.00;;;;;;8313056;28;20211;-63
2022/07/07 06:52:50;;;;;;;2.07;0.63;;;21.30;1.00;;;;;;8304327;28;20203;-65
2022/07/07 06:56:51;;;;;;;4.73;0.60;;;19.90;1.00;;;;;;8306805;28;20214;-65
2022/07/07 07:00:52;;;;;;;4.37;1.23;;;18.00;99.90;;;;;;8308790;28;20320;-65
2022/07/07 07:04:54;;;;;;;1.67;0.70;;;17.30;99.90;;;;;;8310596;28;20205;-64
2022/07/07 07:08:56;;;;;;;2.90;0.63;;;17.20;99.90;;;;;;8309340;28;20214;-63
2022/07/07 07:12:57;;;;;;;3.53;0.90;;;17.50;99.90;;;;;;8302662;28;20222;-63
2022/07/07 07:16:57;;;;;;;2.50;0.63;;;17.80;99.90;;;;;;8307840;28;20186;-63
2022/07/07 07:20:58;;;;;;;3.03;0.77;;;17.70;99.90;;;;;;8325507;28;20298;-63
2022/07/07 07:24:59;;;;;;;1.83;0.73;;;17.70;99.90;;;;;;8302157;28;20240;-63
2022/07/07 07:29:00;;;;;;;3.13;0.93;;;17.50;99.90;;;;;;8309728;28;20263;-64
2022/07/07 07:33:00;;;;;;;3.27;0.70;;;17.40;99.90;;;;;;8307757;28;20182;-65
2022/07/07 07:37:01;;;;;;;2.47;0.60;;;17.00;1.00;;;;;;8308760;28;20190;-64
2022/07/07 07:41:04;;;;;;;3.53;0.70;;;16.60;1.00;;;;;;8307809;28;20190;-66
2022/07/07 07:45:11;;;;;;;2.43;0.90;;;16.10;99.90;;;;;;8307353;28;20265;-65
2022/07/07 07:49:12;;;;;;;2.80;0.80;;;16.10;99.90;;;;;;8305244;28;20216;-64
2022/07/07 07:53:13;;;;;;;1.90;0.67;;;15.80;1.00;;;;;;8305851;28;20238;-64
2022/07/07 07:57:14;;;;;;;3.50;0.57;;;16.30;99.90;;;;;;8307202;28;20179;-64
2022/07/07 08:01:15;;;;;;;2.27;0.70;;;16.90;99.90;;;;;;8304427;28;20263;-62
2022/07/07 08:05:18;;;;;;;2.33;0.57;;;17.70;14.60;;;;;;8299894;28;20201;-64
2022/07/07 08:09:19;;;;;;;1.20;0.67;;;18.10;1.00;;;;;;8299253;28;20210;-63
2022/07/07 08:13:19;;;;;;;5.30;0.67;;;18.60;1.00;;;;;;8300459;28;20317;-62
2022/07/07 08:17:20;;;;;;;2.33;0.67;;;19.00;1.00;;;;;;8316625;28;20350;-63
2022/07/07 08:21:21;;;;;;;1.93;0.47;;;19.30;99.90;;;;;;8304733;28;20183;-67
2022/07/07 08:25:22;;;;;;;1.20;0.50;;;19.40;99.90;;;;;;8304348;28;20191;-63
2022/07/07 08:29:23;;;;;;;1.43;0.70;;;19.40;99.90;;;;;;8304033;28;20224;-62
2022/07/07 08:33:24;;;;;;;1.53;0.63;;;19.50;99.90;;;;;;8308541;28;20246;-66
2022/07/07 08:37:25;;;;;;;2.60;0.60;;;19.70;99.90;;;;;;8304192;28;20186;-63
2022/07/07 08:41:26;;;;;;;2.67;0.43;;;19.80;99.90;;;;;;8306177;28;20302;-63
2022/07/07 08:45:27;;;;;;;1.17;0.40;;;19.80;99.90;;;;;;8315181;28;20217;-64
2022/07/07 08:49:28;;;;;;;1.80;0.50;;;19.80;99.90;;;;;;8305836;28;20218;-64
2022/07/07 08:53:33;;;;;;;1.37;0.53;;;19.80;99.90;;;;;;8323644;28;20214;-62
2022/07/07 08:57:35;;;;;;;0.70;0.40;;;19.80;99.90;;;;;;8309833;28;20199;-67
2022/07/07 09:01:37;;;;;;;1.07;0.40;;;19.90;99.90;;;;;;8312711;28;20309;-61
2022/07/07 09:05:38;;;;;;;3.20;0.57;;;20.30;99.90;;;;;;8311369;28;20209;-64
2022/07/07 09:09:52;;;;;;;1.23;0.40;;;20.40;99.90;;;;;;8309530;28;20201;-65
2022/07/07 09:14:11;;;;;;;1.83;0.50;;;20.40;99.90;;;;;;8309234;28;20211;-64
2022/07/07 09:18:11;;;;;;;1.77;0.50;;;20.70;99.90;;;;;;8316121;28;20183;-67
2022/07/07 09:22:12;;;;;;;1.77;0.50;;;21.20;90.90;;;;;;8309114;28;20193;-69
2022/07/07 09:26:32;;;;;;;0.80;0.40;;;21.50;75.50;;;;;;8311139;28;20213;-67
2022/07/07 09:30:54;;;;;;;0.67;0.40;;;21.70;43.00;;;;;;8312942;28;20218;-66
2022/07/07 09:34:54;;;;;;;0.50;0.30;;;21.70;33.80;;;;;;8315958;28;20186;-63
2022/07/07 09:39:03;;;;;;;2.00;0.50;;;21.70;20.90;;;;;;8307236;28;20433;-65
2022/07/07 09:43:05;;;;;;;3.50;0.60;;;21.90;4.10;;;;;;8309653;28;20255;-66
2022/07/07 09:47:09;;;;;;;2.63;0.63;;;22.00;1.00;;;;;;8310797;28;20187;-65
2022/07/07 09:51:15;;;;;;;1.40;0.40;;;22.00;2.00;;;;;;8318700;28;20206;-68
2022/07/07 09:55:15;;;;;;;2.47;0.30;;;22.30;1.00;;;;;;8307091;28;20179;-71
2022/07/07 09:59:19;;;;;;;1.77;0.60;;;22.20;1.00;;;;;;8310084;28;20186;-69
2022/07/07 10:03:23;;;;;;;4.73;0.53;;;22.30;1.00;;;;;;8307120;28;20212;-71
2022/07/07 10:07:27;;;;;;;0.77;0.30;;;22.90;1.00;;;;;;8312224;28;20207;-63
2022/07/07 10:11:42;;;;;;;2.47;0.40;;;23.60;1.00;;;;;;8339165;28;20197;-68
2022/07/07 10:15:43;;;;;;;3.23;0.43;;;24.20;1.00;;;;;;8307868;28;20193;-66
2022/07/07 10:19:44;;;;;;;1.50;0.20;;;24.30;1.00;;;;;;8314161;28;20194;-66
2022/07/07 10:23:46;;;;;;;1.30;0.50;;;24.20;1.00;;;;;;8317319;28;20190;-71
2022/07/07 10:27:52;;;;;;;1.03;0.60;;;24.20;1.00;;;;;;8309869;28;20238;-70
2022/07/07 10:31:53;;;;;;;1.50;0.30;;;24.20;1.00;;;;;;8311987;28;20207;-65
2022/07/07 10:35:54;;;;;;;1.90;0.40;;;23.00;1.00;;;;;;8315242;28;20221;-64
2022/07/07 10:39:56;;;;;;;2.43;0.50;;;22.70;1.00;;;;;;8331599;28;20204;-66
2022/07/07 10:44:10;;;;;;;5.20;0.47;;;22.80;1.00;;;;;;8308094;28;20240;-65
2022/07/07 10:48:45;;;;;;;1.87;0.50;;;22.70;1.00;;;;;;8311447;28;20218;-65
2022/07/07 10:52:46;;;;;;;2.03;0.47;;;22.90;1.00;;;;;;8312873;28;20211;-62
2022/07/07 10:56:53;;;;;;;0.73;0.57;;;23.40;1.00;;;;;;8308141;28;20197;-63
2022/07/07 11:01:07;;;;;;;1.53;0.67;;;23.30;1.00;;;;;;8309169;28;20220;-62
2022/07/07 11:05:14;;;;;;;0.73;0.50;;;22.90;1.00;;;;;;8307854;28;20210;-64
2022/07/07 11:09:15;;;;;;;1.80;0.50;;;22.60;1.00;;;;;;8307257;28;20218;-63
2022/07/07 11:13:37;;;;;;;0.97;0.40;;;22.70;1.00;;;;;;8308101;28;20193;-64
2022/07/07 11:17:38;;;;;;;0.60;0.30;;;22.80;1.00;;;;;;8305430;28;20186;-65
2022/07/07 11:21:40;;;;;;;1.37;0.70;;;23.10;1.00;;;;;;8298134;28;20198;-66
2022/07/07 11:25:42;;;;;;;1.13;0.40;;;23.40;1.00;;;;;;8312436;28;20195;-64
2022/07/07 11:29:43;;;;;;;1.97;0.50;;;23.30;1.00;;;;;;8301841;28;20219;-63
2022/07/07 11:33:50;;;;;;;1.80;0.60;;;23.20;1.00;;;;;;8304714;28;20265;-67
2022/07/07 11:37:51;;;;;;;1.43;0.70;;;22.90;1.00;;;;;;8341007;28;20542;-64
2022/07/07 11:41:51;;;;;;;1.93;0.70;;;22.70;6.30;;;;;;8312279;28;20191;-63
2022/07/07 11:45:52;;;;;;;2.87;0.70;;;22.60;1.00;;;;;;8308601;28;20240;-63
2022/07/07 11:49:53;;;;;;;2.30;1.00;;;22.20;21.00;;;;;;8307364;28;20221;-64
2022/07/07 11:53:59;;;;;;;2.07;0.70;;;21.90;52.60;;;;;;8308377;28;20190;-63
2022/07/07 11:58:03;;;;;;;1.77;0.87;;;21.80;71.80;;;;;;8324962;28;20190;-63
2022/07/07 12:02:19;;;;;;;5.83;1.10;;;21.90;81.00;;;;;;8311496;28;20325;-65
2022/07/07 12:06:26;;;;;;;2.90;1.07;;;21.70;97.90;;;;;;8316691;28;20215;-66
2022/07/07 12:10:28;;;;;;;2.53;1.50;;;21.80;83.90;;;;;;8309955;28;20211;-62
2022/07/07 12:14:29;;;;;;;1.37;0.70;;;22.00;88.80;;;;;;8307088;28;20204;-63
2022/07/07 12:18:36;;;;;;;2.33;1.10;;;22.20;74.90;;;;;;8304450;28;20190;-63
2022/07/07 12:22:40;;;;;;;2.07;0.77;;;22.10;79.30;;;;;;8306967;28;20193;-63
2022/07/07 12:26:44;;;;;;;2.90;0.90;;;22.30;71.70;;;;;;8310742;28;20202;-64
2022/07/07 12:30:54;;;;;;;3.03;1.10;;;22.40;58.60;;;;;;8303254;28;20305;-69
2022/07/07 12:34:55;;;;;;;7.03;1.10;;;22.80;39.80;;;;;;8305532;28;20284;-66
2022/07/07 12:38:58;;;;;;;1.27;0.70;;;22.90;29.10;;;;;;8311528;28;20208;-65
2022/07/07 12:43:07;;;;;;;3.43;1.00;;;23.00;42.90;;;;;;8336653;28;20195;-64
2022/07/07 12:47:08;;;;;;;9.77;1.00;;;23.10;33.90;;;;;;8338153;28;20191;-65
2022/07/07 12:51:09;;;;;;;3.93;0.77;;;23.40;13.70;;;;;;8308363;28;20575;-65
2022/07/07 12:55:11;;;;;;;6.43;1.07;;;23.00;57.90;;;;;;8317069;28;20217;-61
2022/07/07 12:59:19;;;;;;;6.10;1.13;;;23.10;70.50;;;;;;8305944;28;20187;-61
2022/07/07 13:03:19;;;;;;;2.43;0.77;;;23.40;65.00;;;;;;8310170;28;20222;-61
2022/07/07 13:07:22;;;;;;;1.80;0.90;;;23.30;51.50;;;;;;8306605;28;20214;-68
2022/07/07 13:11:22;;;;;;;1.07;0.77;;;22.70;99.90;;;;;;8309149;28;20222;-64
2022/07/07 13:15:23;;;;;;;2.20;0.87;;;21.90;99.90;;;;;;8300597;28;20244;-64
2022/07/07 13:19:25;;;;;;;2.77;0.90;;;22.30;99.90;;;;;;8309972;28;20187;-62
2022/07/07 13:23:28;;;;;;;2.77;1.10;;;22.30;99.90;;;;;;8309605;28;20197;-61
2022/07/07 13:27:28;;;;;;;1.47;0.80;;;22.40;99.90;;;;;;8309768;28;20518;-65
2022/07/07 13:31:29;;;;;;;3.70;1.00;;;22.30;99.90;;;;;;8302419;28;20199;-62
2022/07/07 13:35:30;;;;;;;4.17;1.03;;;22.10;99.90;;;;;;8308868;28;20191;-65
2022/07/07 13:39:31;;;;;;;2.53;0.80;;;21.90;99.90;;;;;;8306940;28;20198;-66
2022/07/07 13:43:32;;;;;;;3.60;1.33;;;21.60;99.90;;;;;;8307198;28;20183;-64
2022/07/07 13:47:33;;;;;;;3.97;1.10;;;21.60;99.90;;;;;;8313833;28;20206;-63
2022/07/07 13:51:33;;;;;;;5.20;1.40;;;21.70;99.90;;;;;;8321545;28;20202;-62
2022/07/07 13:55:34;;;;;;;3.10;1.47;;;21.90;99.90;;;;;;8315790;28;20185;-66
2022/07/07 13:59:35;;;;;;;1.63;1.30;;;21.70;99.90;;;;;;8321721;28;20218;-63
2022/07/07 14:03:36;;;;;;;2.67;1.70;;;21.60;99.90;;;;;;8312466;28;20197;-61
2022/07/07 14:07:38;;;;;;;2.73;1.70;;;21.50;99.90;;;;;;8316338;28;20233;-62
2022/07/07 14:11:39;;;;;;;3.60;2.40;;;21.50;99.90;;;;;;8314247;28;20190;-64
2022/07/07 14:15:45;;;;;;;2.63;2.10;;;21.30;99.90;;;;;;8316369;28;20193;-63
2022/07/07 14:19:45;;;;;;;4.23;2.10;;;20.50;99.90;;;;;;8309766;28;20405;-64
2022/07/07 14:23:46;;;;;;;2.70;1.57;;;19.80;1.00;;;;;;8302962;28;20229;-64
2022/07/07 14:27:47;;;;;;;2.40;1.70;;;20.00;1.00;;;;;;8311975;28;20784;-62
2022/07/07 14:31:48;;;;;;;1.60;1.33;;;20.40;99.90;;;;;;8314462;28;20190;-61
2022/07/07 14:35:49;;;;;;;3.80;2.03;;;20.60;99.90;;;;;;8312782;28;20191;-63
2022/07/07 14:39:51;;;;;;;5.40;1.90;;;20.30;99.90;;;;;;8313989;28;20194;-61
2022/07/07 14:43:51;;;;;;;3.43;1.53;;;20.00;1.00;;;;;;8310552;28;20229;-61
2022/07/07 14:47:52;;;;;;;2.23;1.67;;;20.10;1.00;;;;;;8314596;28;20264;-64
2022/07/07 14:51:53;;;;;;;3.50;1.83;;;20.10;99.90;;;;;;8313307;28;20214;-62
2022/07/07 14:55:54;;;;;;;3.70;1.80;;;19.70;1.00;;;;;;8310626;28;20390;-65
2022/07/07 14:59:55;;;;;;;3.50;1.50;;;19.50;1.00;;;;;;8313793;28;20194;-63
2022/07/07 15:03:55;;;;;;;1.63;1.53;;;19.20;1.00;;;;;;8305328;28;20191;-66
2022/07/07 15:07:57;;;;;;;1.60;1.50;;;18.90;19.50;;;;;;8307192;28;20322;-66
2022/07/07 15:11:58;;;;;;;2.60;1.43;;;19.00;20.30;;;;;;8309886;28;20224;-66
2022/07/07 15:15:59;;;;;;;1.53;1.27;;;19.50;1.00;;;;;;8313700;28;20296;-65
2022/07/07 15:20:00;;;;;;;1.77;1.10;;;20.00;1.00;;;;;;8316314;28;20198;-63
2022/07/07 15:24:01;;;;;;;2.70;1.47;;;20.00;1.00;;;;;;8338144;28;20190;-64
2022/07/07 15:28:02;;;;;;;1.97;1.30;;;20.30;1.00;;;;;;8307784;28;20251;-66
2022/07/07 15:32:03;;;;;;;1.53;1.43;;;19.70;1.00;;;;;;8305184;28;20202;-65
2022/07/07 15:36:07;;;;;;;3.60;1.73;;;19.40;29.70;;;;;;8318325;28;20182;-64
2022/07/07 15:40:08;;;;;;;1.70;1.40;;;19.70;1.00;;;;;;8319591;28;20236;-63
2022/07/07 15:44:09;;;;;;;2.23;1.80;;;19.80;1.00;;;;;;8315173;28;20249;-65
2022/07/07 15:48:10;;;;;;;5.13;1.87;;;19.80;1.00;;;;;;8312303;28;20210;-65
2022/07/07 15:52:11;;;;;;;2.67;1.70;;;19.70;1.00;;;;;;8316419;28;20213;-63
2022/07/07 15:56:12;;;;;;;3.67;2.17;;;19.80;1.00;;;;;;8311317;28;20183;-65
2022/07/07 16:00:14;;;;;;;1.77;1.53;;;20.00;1.00;;;;;;8319321;28;20479;-64
2022/07/07 16:04:33;;;;;;;3.03;1.80;;;20.00;1.00;;;;;;8315839;28;20197;-65
2022/07/07 16:08:35;;;;;;;2.90;1.60;;;19.80;1.00;;;;;;8311126;28;20216;-70
2022/07/07 16:12:36;;;;;;;3.37;1.80;;;19.60;28.30;;;;;;8317360;28;20206;-66
2022/07/07 16:16:37;;;;;;;2.50;1.43;;;19.70;1.00;;;;;;8316083;28;20183;-65
2022/07/07 16:20:38;;;;;;;1.33;0.93;;;19.60;1.00;;;;;;8316736;28;20214;-67
2022/07/07 16:24:39;;;;;;;1.80;1.30;;;19.70;1.90;;;;;;8312034;28;20265;-66
2022/07/07 16:28:39;;;;;;;1.70;1.30;;;19.90;1.00;;;;;;8314901;28;20328;-64
2022/07/07 16:32:40;;;;;;;1.63;1.10;;;19.80;1.00;;;;;;8308291;28;20188;-65
2022/07/07 16:36:43;;;;;;;2.00;1.03;;;19.80;1.00;;;;;;8342157;28;20191;-62
2022/07/07 16:40:45;;;;;;;0.93;0.80;;;20.30;1.00;;;;;;8306925;28;20216;-66
2022/07/07 16:44:46;;;;;;;2.30;1.00;;;20.90;99.90;;;;;;8313294;28;20198;-69
2022/07/07 16:48:47;;;;;;;1.30;0.90;;;21.30;99.90;;;;;;8306335;28;20265;-66
2022/07/07 16:52:47;;;;;;;2.00;0.90;;;21.40;99.90;;;;;;8306318;28;20209;-64
2022/07/07 16:56:49;;;;;;;1.50;1.10;;;21.30;99.90;;;;;;8311576;28;20220;-70
2022/07/07 17:00:49;;;;;;;0.80;0.80;;;21.20;99.90;;;;;;8311343;28;20202;-72
2022/07/07 17:04:50;;;;;;;0.80;0.80;;;21.20;99.90;;;;;;8335097;28;20206;-66
2022/07/07 17:08:52;;;;;;;2.27;1.10;;;20.90;99.90;;;;;;8310162;28;20293;-65
2022/07/07 17:12:53;;;;;;;2.93;1.50;;;20.70;1.00;;;;;;8313655;28;20298;-64
2022/07/07 17:16:54;;;;;;;1.27;1.00;;;20.60;1.00;;;;;;8310519;28;20178;-65
2022/07/07 17:20:56;;;;;;;1.30;0.90;;;20.40;1.00;;;;;;8314111;28;20186;-67
2022/07/07 17:24:58;;;;;;;2.00;1.10;;;20.40;1.00;;;;;;8316157;28;20195;-67
2022/07/07 17:28:59;;;;;;;1.20;1.10;;;20.20;1.00;;;;;;8313057;28;20203;-62
2022/07/07 17:33:00;;;;;;;2.50;1.10;;;20.10;1.00;;;;;;8313160;28;20265;-64
2022/07/07 17:37:01;;;;;;;1.43;1.17;;;19.90;4.80;;;;;;8312249;28;20237;-62
2022/07/07 17:41:03;;;;;;;3.60;1.40;;;19.80;1.00;;;;;;8316967;28;20190;-65
2022/07/07 17:45:05;;;;;;;1.20;1.03;;;19.60;99.90;;;;;;8313066;28;20217;-64
2022/07/07 17:49:06;;;;;;;2.53;1.63;;;19.30;99.90;;;;;;8316688;28;20244;-65
2022/07/07 17:53:07;;;;;;;1.47;1.37;;;19.00;26.50;;;;;;8321475;28;20199;-63
2022/07/07 17:57:08;;;;;;;2.83;1.50;;;18.90;1.00;;;;;;8314508;28;20190;-64
2022/07/07 18:01:09;;;;;;;2.47;1.60;;;18.90;99.90;;;;;;8316038;28;20656;-67
2022/07/07 18:05:10;;;;;;;2.87;1.47;;;18.80;99.90;;;;;;8311190;28;20225;-71
2022/07/07 18:09:11;;;;;;;6.03;1.53;;;18.50;1.00;;;;;;8308344;28;20203;-61
2022/07/07 18:13:12;;;;;;;5.47;1.70;;;18.40;79.20;;;;;;8315888;28;20270;-61
2022/07/07 18:17:13;;;;;;;2.57;1.50;;;18.40;99.90;;;;;;8308849;28;20191;-61
2022/07/07 18:21:14;;;;;;;1.50;1.40;;;18.30;1.00;;;;;;8307863;28;20282;-62
2022/07/07 18:25:16;;;;;;;1.50;1.40;;;18.10;1.00;;;;;;8311239;28;20178;-62
2022/07/07 18:29:17;;;;;;;1.50;1.40;;;18.00;99.90;;;;;;8306917;28;20277;-65
2022/07/07 18:33:19;;;;;;;2.13;1.93;;;17.80;1.00;;;;;;8307287;28;20183;-61
2022/07/07 18:37:20;;;;;;;1.70;1.60;;;17.70;1.00;;;;;;8304517;28;20280;-62
2022/07/07 18:41:20;;;;;;;3.63;1.70;;;17.60;7.60;;;;;;8308756;28;20218;-64
2022/07/07 18:45:21;;;;;;;2.13;1.80;;;17.40;91.40;;;;;;8312976;28;20511;-62
2022/07/07 18:49:22;;;;;;;3.50;2.27;;;17.30;1.00;;;;;;8315629;28;20215;-64
2022/07/07 18:53:23;;;;;;;2.20;1.93;;;17.20;1.00;;;;;;8310894;28;20203;-67
2022/07/07 18:57:24;;;;;;;2.60;2.40;;;17.20;99.90;;;;;;8308359;28;20187;-62
2022/07/07 19:01:25;;;;;;;2.30;2.10;;;17.10;1.00;;;;;;8308802;28;20189;-66
2022/07/07 19:05:26;;;;;;;4.87;2.60;;;17.00;99.90;;;;;;8306941;28;20222;-64
2022/07/07 19:09:27;;;;;;;2.40;2.17;;;17.00;99.90;;;;;;8310035;28;20226;-61
2022/07/07 19:13:28;;;;;;;2.80;2.60;;;17.00;1.00;;;;;;8315292;28;20205;-65
2022/07/07 19:17:29;;;;;;;2.60;2.40;;;17.00;99.90;;;;;;8313490;28;20207;-61
2022/07/07 19:21:31;;;;;;;2.50;2.30;;;17.20;77.30;;;;;;8309236;28;20187;-61
2022/07/07 19:25:32;;;;;;;2.67;2.40;;;17.30;52.40;;;;;;8307321;28;20502;-69
2022/07/07 19:29:33;;;;;;;3.40;3.10;;;17.40;99.90;;;;;;8313124;28;20215;-62
2022/07/07 19:33:34;;;;;;;3.80;3.40;;;17.40;25.40;;;;;;8303134;28;20183;-62
2022/07/07 19:37:35;;;;;;;2.83;2.60;;;17.50;1.00;;;;;;8308980;28;20178;-61
2022/07/07 19:41:37;;;;;;;3.07;2.87;;;17.40;1.00;;;;;;8308897;28;20232;-60
2022/07/07 19:45:38;;;;;;;3.40;3.10;;;17.30;1.00;;;;;;8309330;28;20265;-61
2022/07/07 19:49:38;;;;;;;3.07;2.77;;;17.20;99.90;;;;;;8309765;28;20206;-62
2022/07/07 19:53:44;;;;;;;4.53;2.87;;;17.00;1.00;;;;;;8305112;28;20294;-61
2022/07/07 19:57:45;;;;;;;4.93;3.17;;;16.90;99.90;;;;;;8308157;28;20193;-62
2022/07/07 20:01:46;;;;;;;3.33;3.10;;;16.80;1.00;;;;;;8304413;28;20277;-67
2022/07/07 20:05:48;;;;;;;3.90;3.60;;;16.80;46.30;;;;;;8325151;28;20225;-62
2022/07/07 20:09:49;;;;;;;3.93;3.60;;;16.70;99.90;;;;;;8308024;28;20249;-61
2022/07/07 20:13:51;;;;;;;3.83;3.50;;;16.60;7.20;;;;;;8309561;28;20210;-62
2022/07/07 20:17:52;;;;;;;4.63;3.87;;;16.60;99.90;;;;;;8306419;28;20280;-61
2022/07/07 20:21:53;;;;;;;4.63;4.23;;;16.60;99.90;;;;;;8304244;28;20201;-61
2022/07/07 20:25:54;;;;;;;3.93;3.53;;;16.50;99.90;;;;;;8310040;28;20194;-62
2022/07/07 20:29:55;;;;;;;3.77;3.50;;;16.40;99.90;;;;;;8307674;28;20222;-61
2022/07/07 20:33:56;;;;;;;5.10;4.17;;;16.40;99.90;;;;;;8306352;28;20187;-62
2022/07/07 20:37:57;;;;;;;5.63;4.40;;;16.40;1.00;;;;;;8306581;28;20197;-62
2022/07/07 20:41:58;;;;;;;4.37;3.93;;;16.40;99.90;;;;;;8342973;28;20191;-61
2022/07/07 20:46:00;;;;;;;5.80;5.20;;;16.30;99.90;;;;;;8307081;28;20193;-62
2022/07/07 20:50:01;;;;;;;4.63;4.23;;;16.30;99.90;;;;;;8310053;28;20225;-63
2022/07/07 20:54:02;;;;;;;5.63;4.43;;;16.30;99.90;;;;;;8317668;28;20190;-61
2022/07/07 20:58:03;;;;;;;5.23;4.80;;;16.30;1.00;;;;;;8312922;28;20189;-62
2022/07/07 21:02:09;;;;;;;5.07;4.47;;;16.30;1.00;;;;;;8317644;28;20202;-61
2022/07/07 21:06:10;;;;;;;5.00;4.50;;;16.30;1.00;;;;;;8315391;28;20229;-62